sensor_id;sensor_type;location;lat;lon;timestamp;pressure;altitude;pressure_sealevel;temperature;humidity
68329;BME280;55182;56.864;60.554;2023-11-21T00:01:12;77417.03;;;-143.60;75.87
68329;BME280;55182;56.864;60.554;2023-11-21T00:03:38;77419.06;;;-143.60;75.57
68329;BME280;55182;56.864;60.554;2023-11-21T00:06:03;77415.03;;;-143.60;75.20
68329;BME280;55182;56.864;60.554;2023-11-21T00:08:29;77413.03;;;-143.60;75.21
68329;BME280;55182;56.864;60.554;2023-11-21T00:10:54;77413.03;;;-143.60;75.16
68329;BME280;55182;56.864;60.554;2023-11-21T00:13:20;77402.97;;;-143.60;75.75
68329;BME280;55182;56.864;60.554;2023-11-21T00:15:45;77400.97;;;-143.60;75.87
68329;BME280;55182;56.864;60.554;2023-11-21T00:18:11;77402.97;;;-143.60;75.22
68329;BME280;55182;56.864;60.554;2023-11-21T00:20:36;77390.91;;;-143.60;75.44
68329;BME280;55182;56.864;60.554;2023-11-21T00:23:02;77388.91;;;-143.60;75.53
68329;BME280;55182;56.864;60.554;2023-11-21T00:25:27;77392.91;;;-143.60;75.33
68329;BME280;55182;56.864;60.554;2023-11-21T00:27:53;77392.91;;;-143.60;74.97
68329;BME280;55182;56.864;60.554;2023-11-21T00:30:19;77388.91;;;-143.60;75.12
68329;BME280;55182;56.864;60.554;2023-11-21T00:32:44;77384.88;;;-143.60;75.14
68329;BME280;55182;56.864;60.554;2023-11-21T00:35:10;77376.84;;;-143.60;75.18
68329;BME280;55182;56.864;60.554;2023-11-21T00:37:35;77384.88;;;-143.60;74.95
68329;BME280;55182;56.864;60.554;2023-11-21T00:40:01;77384.88;;;-143.60;75.13
68329;BME280;55182;56.864;60.554;2023-11-21T00:42:27;77388.91;;;-143.60;75.26
68329;BME280;55182;56.864;60.554;2023-11-21T00:44:52;77376.84;;;-143.60;75.14
68329;BME280;55182;56.864;60.554;2023-11-21T00:47:18;77380.84;;;-143.60;75.05
68329;BME280;55182;56.864;60.554;2023-11-21T00:49:43;77384.88;;;-143.60;74.77
68329;BME280;55182;56.864;60.554;2023-11-21T00:52:08;77380.84;;;-143.60;74.72
68329;BME280;55182;56.864;60.554;2023-11-21T00:54:34;77380.84;;;-143.60;74.81
68329;BME280;55182;56.864;60.554;2023-11-21T00:56:59;77370.81;;;-143.60;74.64
68329;BME280;55182;56.864;60.554;2023-11-21T00:59:25;77380.84;;;-143.60;75.04
68329;BME280;55182;56.864;60.554;2023-11-21T01:01:50;77384.88;;;-143.60;75.21
68329;BME280;55182;56.864;60.554;2023-11-21T01:04:16;77380.84;;;-143.60;75.00
68329;BME280;55182;56.864;60.554;2023-11-21T01:06:41;77374.81;;;-143.60;74.82
68329;BME280;55182;56.864;60.554;2023-11-21T01:09:08;77372.81;;;-143.60;74.84
68329;BME280;55182;56.864;60.554;2023-11-21T01:11:37;77364.78;;;-143.60;75.21
68329;BME280;55182;56.864;60.554;2023-11-21T01:14:03;77362.78;;;-143.60;75.31
68329;BME280;55182;56.864;60.554;2023-11-21T01:16:30;77362.78;;;-143.60;75.21
68329;BME280;55182;56.864;60.554;2023-11-21T01:18:55;77364.78;;;-143.60;75.29
68329;BME280;55182;56.864;60.554;2023-11-21T01:21:21;77352.72;;;-143.60;75.09
68329;BME280;55182;56.864;60.554;2023-11-21T01:23:46;77346.69;;;-143.60;75.46
68329;BME280;55182;56.864;60.554;2023-11-21T01:26:12;77346.69;;;-143.60;75.73
68329;BME280;55182;56.864;60.554;2023-11-21T01:28:37;77356.75;;;-143.60;76.08
68329;BME280;55182;56.864;60.554;2023-11-21T01:31:03;77356.75;;;-143.60;76.13
68329;BME280;55182;56.864;60.554;2023-11-21T01:33:28;77356.75;;;-143.60;76.19
68329;BME280;55182;56.864;60.554;2023-11-21T01:35:53;77348.69;;;-143.60;76.55
68329;BME280;55182;56.864;60.554;2023-11-21T01:38:19;77344.69;;;-143.60;76.43
68329;BME280;55182;56.864;60.554;2023-11-21T01:40:44;77342.66;;;-143.60;76.64
68329;BME280;55182;56.864;60.554;2023-11-21T01:43:11;77346.69;;;-143.60;76.94
68329;BME280;55182;56.864;60.554;2023-11-21T01:45:36;77346.69;;;-143.60;76.69
68329;BME280;55182;56.864;60.554;2023-11-21T01:48:02;77344.69;;;-143.60;76.67
68329;BME280;55182;56.864;60.554;2023-11-21T01:50:28;77348.69;;;-143.60;76.88
68329;BME280;55182;56.864;60.554;2023-11-21T01:52:54;77344.69;;;-143.60;76.82
68329;BME280;55182;56.864;60.554;2023-11-21T01:55:20;77342.66;;;-143.60;76.90
68329;BME280;55182;56.864;60.554;2023-11-21T01:57:46;77338.66;;;-143.60;76.49
68329;BME280;55182;56.864;60.554;2023-11-21T02:00:11;77336.63;;;-143.60;76.75
68329;BME280;55182;56.864;60.554;2023-11-21T02:02:37;77340.66;;;-143.60;76.67
68329;BME280;55182;56.864;60.554;2023-11-21T02:05:03;77332.63;;;-143.60;76.68
68329;BME280;55182;56.864;60.554;2023-11-21T02:07:29;77326.59;;;-143.60;76.75
68329;BME280;55182;56.864;60.554;2023-11-21T02:09:55;77324.56;;;-143.60;77.13
68329;BME280;55182;56.864;60.554;2023-11-21T02:12:20;77312.50;;;-143.60;77.08
68329;BME280;55182;56.864;60.554;2023-11-21T02:14:46;77308.50;;;-143.60;77.13
68329;BME280;55182;56.864;60.554;2023-11-21T02:17:11;77304.47;;;-143.60;77.42
68329;BME280;55182;56.864;60.554;2023-11-21T02:19:37;77312.50;;;-143.60;77.27
68329;BME280;55182;56.864;60.554;2023-11-21T02:22:02;77308.50;;;-143.60;77.55
68329;BME280;55182;56.864;60.554;2023-11-21T02:24:29;77308.50;;;-143.60;77.38
68329;BME280;55182;56.864;60.554;2023-11-21T02:26:54;77306.50;;;-143.60;78.11
68329;BME280;55182;56.864;60.554;2023-11-21T02:29:20;77296.44;;;-143.60;77.66
68329;BME280;55182;56.864;60.554;2023-11-21T02:31:46;77292.41;;;-143.60;77.84
68329;BME280;55182;56.864;60.554;2023-11-21T02:34:11;77294.44;;;-143.60;78.25
68329;BME280;55182;56.864;60.554;2023-11-21T02:36:37;77274.31;;;-143.60;78.07
68329;BME280;55182;56.864;60.554;2023-11-21T02:39:02;77276.34;;;-143.60;78.23
68329;BME280;55182;56.864;60.554;2023-11-21T02:41:28;77276.34;;;-143.60;78.12
68329;BME280;55182;56.864;60.554;2023-11-21T02:43:54;77282.38;;;-143.60;78.33
68329;BME280;55182;56.864;60.554;2023-11-21T02:46:20;77284.38;;;-143.60;78.20
68329;BME280;55182;56.864;60.554;2023-11-21T02:48:45;77280.34;;;-143.60;78.25
68329;BME280;55182;56.864;60.554;2023-11-21T02:51:11;77282.38;;;-143.60;78.59
68329;BME280;55182;56.864;60.554;2023-11-21T02:53:36;77274.31;;;-143.60;78.66
68329;BME280;55182;56.864;60.554;2023-11-21T02:56:01;77268.28;;;-143.60;78.59
68329;BME280;55182;56.864;60.554;2023-11-21T02:58:27;77266.28;;;-143.60;78.38
68329;BME280;55182;56.864;60.554;2023-11-21T03:00:52;77268.28;;;-143.60;78.33
68329;BME280;55182;56.864;60.554;2023-11-21T03:03:18;77258.25;;;-143.60;77.85
68329;BME280;55182;56.864;60.554;2023-11-21T03:05:43;77252.22;;;-143.60;78.11
68329;BME280;55182;56.864;60.554;2023-11-21T03:08:09;77248.19;;;-143.60;78.01
68329;BME280;55182;56.864;60.554;2023-11-21T03:10:34;77252.22;;;-143.60;77.79
68329;BME280;55182;56.864;60.554;2023-11-21T03:13:00;77250.19;;;-143.60;77.69
68329;BME280;55182;56.864;60.554;2023-11-21T03:15:25;77250.19;;;-143.60;77.87
68329;BME280;55182;56.864;60.554;2023-11-21T03:17:50;77244.19;;;-143.60;78.11
68329;BME280;55182;56.864;60.554;2023-11-21T03:20:16;77236.13;;;-143.60;77.91
68329;BME280;55182;56.864;60.554;2023-11-21T03:22:41;77232.13;;;-143.60;77.86
68329;BME280;55182;56.864;60.554;2023-11-21T03:25:07;77236.13;;;-143.60;78.06
68329;BME280;55182;56.864;60.554;2023-11-21T03:27:33;77238.16;;;-143.60;78.39
68329;BME280;55182;56.864;60.554;2023-11-21T03:29:58;77236.13;;;-143.60;78.38
68329;BME280;55182;56.864;60.554;2023-11-21T03:32:24;77230.09;;;-143.60;78.63
68329;BME280;55182;56.864;60.554;2023-11-21T03:34:56;77212.00;;;-143.60;79.45
68329;BME280;55182;56.864;60.554;2023-11-21T03:37:22;77222.06;;;-143.60;79.03
68329;BME280;55182;56.864;60.554;2023-11-21T03:39:47;77220.06;;;-143.60;78.95
68329;BME280;55182;56.864;60.554;2023-11-21T03:42:13;77220.06;;;-143.60;78.67
68329;BME280;55182;56.864;60.554;2023-11-21T03:44:39;77220.06;;;-143.60;78.42
68329;BME280;55182;56.864;60.554;2023-11-21T03:47:04;77208.00;;;-143.60;78.47
68329;BME280;55182;56.864;60.554;2023-11-21T03:49:30;77216.03;;;-143.60;78.19
68329;BME280;55182;56.864;60.554;2023-11-21T03:51:55;77203.97;;;-143.60;78.17
68329;BME280;55182;56.864;60.554;2023-11-21T03:54:21;77199.94;;;-143.60;78.54
68329;BME280;55182;56.864;60.554;2023-11-21T03:56:46;77203.97;;;-143.60;78.43
68329;BME280;55182;56.864;60.554;2023-11-21T03:59:12;77199.94;;;-143.60;78.46
68329;BME280;55182;56.864;60.554;2023-11-21T04:01:37;77195.94;;;-143.60;78.66
68329;BME280;55182;56.864;60.554;2023-11-21T04:04:03;77183.88;;;-143.60;78.12
68329;BME280;55182;56.864;60.554;2023-11-21T04:06:28;77183.88;;;-143.60;77.95
68329;BME280;55182;56.864;60.554;2023-11-21T04:08:54;77171.81;;;-143.60;78.04
68329;BME280;55182;56.864;60.554;2023-11-21T04:11:19;77173.81;;;-143.60;77.99
68329;BME280;55182;56.864;60.554;2023-11-21T04:13:45;77169.81;;;-143.60;77.99
68329;BME280;55182;56.864;60.554;2023-11-21T04:16:10;77175.84;;;-143.60;77.41
68329;BME280;55182;56.864;60.554;2023-11-21T04:18:36;77169.81;;;-143.60;77.55
68329;BME280;55182;56.864;60.554;2023-11-21T04:21:02;77159.75;;;-143.60;77.39
68329;BME280;55182;56.864;60.554;2023-11-21T04:23:28;77167.78;;;-143.60;76.95
68329;BME280;55182;56.864;60.554;2023-11-21T04:25:53;77161.75;;;-143.60;77.29
68329;BME280;55182;56.864;60.554;2023-11-21T04:28:19;77155.72;;;-143.60;77.07
68329;BME280;55182;56.864;60.554;2023-11-21T04:30:44;77149.69;;;-143.60;76.50
68329;BME280;55182;56.864;60.554;2023-11-21T04:33:10;77143.69;;;-143.60;76.45
68329;BME280;55182;56.864;60.554;2023-11-21T04:35:35;77147.69;;;-143.60;75.75
68329;BME280;55182;56.864;60.554;2023-11-21T04:38:00;77131.63;;;-143.60;75.81
68329;BME280;55182;56.864;60.554;2023-11-21T04:40:26;77115.53;;;-143.60;76.17
68329;BME280;55182;56.864;60.554;2023-11-21T04:42:51;77111.50;;;-143.60;76.20
68329;BME280;55182;56.864;60.554;2023-11-21T04:45:17;77103.47;;;-143.60;75.70
68329;BME280;55182;56.864;60.554;2023-11-21T04:47:42;77111.50;;;-143.60;75.82
68329;BME280;55182;56.864;60.554;2023-11-21T04:50:08;77115.53;;;-143.60;76.14
68329;BME280;55182;56.864;60.554;2023-11-21T04:52:33;77117.53;;;-143.60;76.02
68329;BME280;55182;56.864;60.554;2023-11-21T04:54:59;77099.44;;;-143.60;75.99
68329;BME280;55182;56.864;60.554;2023-11-21T04:57:24;77083.38;;;-143.60;76.20
68329;BME280;55182;56.864;60.554;2023-11-21T04:59:50;77099.44;;;-143.60;75.91
68329;BME280;55182;56.864;60.554;2023-11-21T05:02:15;77107.50;;;-143.60;75.76
68329;BME280;55182;56.864;60.554;2023-11-21T05:04:41;77105.47;;;-143.60;75.89
68329;BME280;55182;56.864;60.554;2023-11-21T05:07:06;77103.47;;;-143.60;76.06
68329;BME280;55182;56.864;60.554;2023-11-21T05:09:32;77099.44;;;-143.60;76.57
68329;BME280;55182;56.864;60.554;2023-11-21T05:11:57;77077.34;;;-143.60;76.36
68329;BME280;55182;56.864;60.554;2023-11-21T05:14:23;77073.31;;;-143.60;76.43
68329;BME280;55182;56.864;60.554;2023-11-21T05:16:48;77055.22;;;-143.60;76.38
68329;BME280;55182;56.864;60.554;2023-11-21T05:19:14;77055.22;;;-143.60;76.75
68329;BME280;55182;56.864;60.554;2023-11-21T05:21:39;77045.19;;;-143.60;76.41
68329;BME280;55182;56.864;60.554;2023-11-21T05:24:05;77047.19;;;-143.60;76.68
68329;BME280;55182;56.864;60.554;2023-11-21T05:26:30;77027.09;;;-143.60;76.48
68329;BME280;55182;56.864;60.554;2023-11-21T05:28:56;77019.06;;;-143.60;76.78
68329;BME280;55182;56.864;60.554;2023-11-21T05:31:21;77002.97;;;-143.60;77.08
68329;BME280;55182;56.864;60.554;2023-11-21T05:33:47;77011.00;;;-143.60;76.87
68329;BME280;55182;56.864;60.554;2023-11-21T05:36:12;77007.00;;;-143.60;77.04
68329;BME280;55182;56.864;60.554;2023-11-21T05:38:37;76998.97;;;-143.60;76.90
68329;BME280;55182;56.864;60.554;2023-11-21T05:41:03;76986.91;;;-143.60;77.49
68329;BME280;55182;56.864;60.554;2023-11-21T05:43:28;76986.91;;;-143.60;77.41
68329;BME280;55182;56.864;60.554;2023-11-21T05:45:54;76978.84;;;-143.60;77.47
68329;BME280;55182;56.864;60.554;2023-11-21T05:48:19;76966.81;;;-143.60;77.42
68329;BME280;55182;56.864;60.554;2023-11-21T05:50:45;76960.78;;;-143.60;77.29
68329;BME280;55182;56.864;60.554;2023-11-21T05:53:10;76960.78;;;-143.60;77.20
68329;BME280;55182;56.864;60.554;2023-11-21T05:55:36;76960.78;;;-143.60;77.09
68329;BME280;55182;56.864;60.554;2023-11-21T05:58:01;76954.75;;;-143.60;77.25
68329;BME280;55182;56.864;60.554;2023-11-21T06:00:27;76948.72;;;-143.60;77.11
68329;BME280;55182;56.864;60.554;2023-11-21T06:02:52;76942.69;;;-143.60;76.96
68329;BME280;55182;56.864;60.554;2023-11-21T06:05:19;76940.66;;;-143.60;76.85
68329;BME280;55182;56.864;60.554;2023-11-21T06:07:45;76928.63;;;-143.60;76.69
68329;BME280;55182;56.864;60.554;2023-11-21T06:10:11;76926.59;;;-143.60;76.59
68329;BME280;55182;56.864;60.554;2023-11-21T06:12:37;76914.53;;;-143.60;76.33
68329;BME280;55182;56.864;60.554;2023-11-21T06:15:03;76906.50;;;-143.60;76.36
68329;BME280;55182;56.864;60.554;2023-11-21T06:17:29;76914.53;;;-143.60;76.28
68329;BME280;55182;56.864;60.554;2023-11-21T06:19:54;76902.47;;;-143.60;76.26
68329;BME280;55182;56.864;60.554;2023-11-21T06:22:20;76894.44;;;-143.60;75.94
68329;BME280;55182;56.864;60.554;2023-11-21T06:24:45;76902.47;;;-143.60;75.89
68329;BME280;55182;56.864;60.554;2023-11-21T06:27:11;76898.47;;;-143.60;75.96
68329;BME280;55182;56.864;60.554;2023-11-21T06:29:36;76894.44;;;-143.60;75.68
68329;BME280;55182;56.864;60.554;2023-11-21T06:32:01;76888.41;;;-143.60;75.63
68329;BME280;55182;56.864;60.554;2023-11-21T06:34:27;76894.44;;;-143.60;75.20
68329;BME280;55182;56.864;60.554;2023-11-21T06:36:52;76886.41;;;-143.60;75.27
68329;BME280;55182;56.864;60.554;2023-11-21T06:39:18;76866.31;;;-143.60;75.91
68329;BME280;55182;56.864;60.554;2023-11-21T06:41:43;76864.28;;;-143.60;75.51
68329;BME280;55182;56.864;60.554;2023-11-21T06:44:09;76854.25;;;-143.60;75.61
68329;BME280;55182;56.864;60.554;2023-11-21T06:46:34;76852.25;;;-143.60;75.64
68329;BME280;55182;56.864;60.554;2023-11-21T06:48:59;76854.25;;;-143.60;75.37
68329;BME280;55182;56.864;60.554;2023-11-21T06:51:25;76848.22;;;-143.60;75.22
68329;BME280;55182;56.864;60.554;2023-11-21T06:53:50;76850.22;;;-143.60;75.12
68329;BME280;55182;56.864;60.554;2023-11-21T06:56:19;76852.25;;;-143.60;74.92
68329;BME280;55182;56.864;60.554;2023-11-21T06:58:44;76840.19;;;-143.60;74.76
68329;BME280;55182;56.864;60.554;2023-11-21T07:01:10;76832.13;;;-143.60;74.91
68329;BME280;55182;56.864;60.554;2023-11-21T07:03:35;76828.13;;;-143.60;74.72
68329;BME280;55182;56.864;60.554;2023-11-21T07:06:01;76818.06;;;-143.60;74.63
68329;BME280;55182;56.864;60.554;2023-11-21T07:08:26;76804.00;;;-143.60;74.06
68329;BME280;55182;56.864;60.554;2023-11-21T07:10:52;76802.00;;;-143.60;74.14
68329;BME280;55182;56.864;60.554;2023-11-21T07:13:18;76791.94;;;-143.60;73.78
68329;BME280;55182;56.864;60.554;2023-11-21T07:15:43;76779.88;;;-143.60;73.30
68329;BME280;55182;56.864;60.554;2023-11-21T07:18:09;76761.78;;;-143.60;73.63
68329;BME280;55182;56.864;60.554;2023-11-21T07:20:34;76747.72;;;-143.60;73.71
68329;BME280;55182;56.864;60.554;2023-11-21T07:22:59;76741.69;;;-143.60;73.77
68329;BME280;55182;56.864;60.554;2023-11-21T07:25:25;76733.66;;;-143.60;73.52
68329;BME280;55182;56.864;60.554;2023-11-21T07:27:50;76735.66;;;-143.60;73.44
68329;BME280;55182;56.864;60.554;2023-11-21T07:30:16;76721.59;;;-143.60;73.67
68329;BME280;55182;56.864;60.554;2023-11-21T07:32:41;76709.53;;;-143.60;73.97
68329;BME280;55182;56.864;60.554;2023-11-21T07:35:07;76699.50;;;-143.60;73.85
68329;BME280;55182;56.864;60.554;2023-11-21T07:37:32;76695.47;;;-143.60;73.57
68329;BME280;55182;56.864;60.554;2023-11-21T07:39:58;76685.44;;;-143.60;73.70
68329;BME280;55182;56.864;60.554;2023-11-21T07:42:23;76685.44;;;-143.60;73.63
68329;BME280;55182;56.864;60.554;2023-11-21T07:44:51;76691.44;;;-143.60;73.53
68329;BME280;55182;56.864;60.554;2023-11-21T07:47:16;76677.38;;;-143.60;73.54
68329;BME280;55182;56.864;60.554;2023-11-21T07:49:42;76665.31;;;-143.60;73.60
68329;BME280;55182;56.864;60.554;2023-11-21T07:52:07;76645.22;;;-143.60;73.04
68329;BME280;55182;56.864;60.554;2023-11-21T07:54:33;76635.19;;;-143.60;73.09
68329;BME280;55182;56.864;60.554;2023-11-21T07:56:58;76629.16;;;-143.60;73.43
68329;BME280;55182;56.864;60.554;2023-11-21T07:59:24;76641.22;;;-143.60;73.16
68329;BME280;55182;56.864;60.554;2023-11-21T08:01:49;76625.13;;;-143.60;73.50
68329;BME280;55182;56.864;60.554;2023-11-21T08:04:14;76625.13;;;-143.60;73.32
68329;BME280;55182;56.864;60.554;2023-11-21T08:06:40;76613.06;;;-143.60;73.68
68329;BME280;55182;56.864;60.554;2023-11-21T08:09:05;76609.06;;;-143.60;73.96
68329;BME280;55182;56.864;60.554;2023-11-21T08:11:31;76609.06;;;-143.60;74.27
68329;BME280;55182;56.864;60.554;2023-11-21T08:13:56;76592.97;;;-143.60;74.39
68329;BME280;55182;56.864;60.554;2023-11-21T08:16:22;76601.00;;;-143.60;74.61
68329;BME280;55182;56.864;60.554;2023-11-21T08:18:47;76588.97;;;-143.60;75.03
68329;BME280;55182;56.864;60.554;2023-11-21T08:21:13;76574.88;;;-143.60;75.29
68329;BME280;55182;56.864;60.554;2023-11-21T08:23:38;76572.88;;;-143.60;75.18
68329;BME280;55182;56.864;60.554;2023-11-21T08:26:04;76566.84;;;-143.60;75.18
68329;BME280;55182;56.864;60.554;2023-11-21T08:28:29;76568.84;;;-143.60;74.64
68329;BME280;55182;56.864;60.554;2023-11-21T08:30:55;76560.81;;;-143.60;74.58
68329;BME280;55182;56.864;60.554;2023-11-21T08:33:20;76558.81;;;-143.60;75.38
68329;BME280;55182;56.864;60.554;2023-11-21T08:35:46;76552.78;;;-143.60;75.57
68329;BME280;55182;56.864;60.554;2023-11-21T08:38:12;76548.75;;;-143.60;75.75
68329;BME280;55182;56.864;60.554;2023-11-21T08:40:37;76548.75;;;-143.60;76.12
68329;BME280;55182;56.864;60.554;2023-11-21T08:43:03;76540.72;;;-143.60;77.42
68329;BME280;55182;56.864;60.554;2023-11-21T08:45:29;76548.75;;;-143.60;78.93
68329;BME280;55182;56.864;60.554;2023-11-21T08:47:54;76548.75;;;-143.60;79.83
68329;BME280;55182;56.864;60.554;2023-11-21T08:50:20;76550.78;;;-143.60;79.87
68329;BME280;55182;56.864;60.554;2023-11-21T08:52:45;76546.75;;;-143.60;80.38
68329;BME280;55182;56.864;60.554;2023-11-21T08:55:11;76552.78;;;-143.60;81.05
68329;BME280;55182;56.864;60.554;2023-11-21T08:57:37;76566.84;;;-143.60;81.92
68329;BME280;55182;56.864;60.554;2023-11-21T09:00:03;76556.81;;;-143.60;82.73
68329;BME280;55182;56.864;60.554;2023-11-21T09:02:28;76560.81;;;-143.60;83.38
68329;BME280;55182;56.864;60.554;2023-11-21T09:04:54;76556.81;;;-143.60;83.56
68329;BME280;55182;56.864;60.554;2023-11-21T09:07:19;76566.84;;;-143.60;84.49
68329;BME280;55182;56.864;60.554;2023-11-21T09:09:45;76556.81;;;-143.60;84.67
68329;BME280;55182;56.864;60.554;2023-11-21T09:12:10;76552.78;;;-143.60;85.67
68329;BME280;55182;56.864;60.554;2023-11-21T09:14:36;76558.81;;;-143.60;85.63
68329;BME280;55182;56.864;60.554;2023-11-21T09:17:01;76558.81;;;-143.60;86.63
68329;BME280;55182;56.864;60.554;2023-11-21T09:19:27;76560.81;;;-143.60;87.59
68329;BME280;55182;56.864;60.554;2023-11-21T09:21:52;76568.84;;;-143.60;87.91
68329;BME280;55182;56.864;60.554;2023-11-21T09:24:18;76558.81;;;-143.60;87.84
68329;BME280;55182;56.864;60.554;2023-11-21T09:26:43;76560.81;;;-143.60;88.30
68329;BME280;55182;56.864;60.554;2023-11-21T09:29:08;76564.84;;;-143.60;88.88
68329;BME280;55182;56.864;60.554;2023-11-21T09:31:34;76564.84;;;-143.60;88.82
68329;BME280;55182;56.864;60.554;2023-11-21T09:34:00;76560.81;;;-143.60;89.24
68329;BME280;55182;56.864;60.554;2023-11-21T09:36:25;76556.81;;;-143.60;89.60
68329;BME280;55182;56.864;60.554;2023-11-21T09:38:51;76548.75;;;-143.60;90.18
68329;BME280;55182;56.864;60.554;2023-11-21T09:41:59;76556.81;;;-143.60;90.39
68329;BME280;55182;56.864;60.554;2023-11-21T09:44:05;76556.81;;;-143.60;90.78
68329;BME280;55182;56.864;60.554;2023-11-21T09:46:34;76548.75;;;-143.60;91.22
68329;BME280;55182;56.864;60.554;2023-11-21T09:49:00;76546.75;;;-143.60;91.51
68329;BME280;55182;56.864;60.554;2023-11-21T09:51:25;76534.69;;;-143.60;92.04
68329;BME280;55182;56.864;60.554;2023-11-21T09:53:52;76518.63;;;-143.60;92.22
68329;BME280;55182;56.864;60.554;2023-11-21T09:56:18;76516.59;;;-143.60;92.57
68329;BME280;55182;56.864;60.554;2023-11-21T09:58:44;76508.56;;;-143.60;92.91
68329;BME280;55182;56.864;60.554;2023-11-21T10:01:09;76498.53;;;-143.60;93.06
68329;BME280;55182;56.864;60.554;2023-11-21T10:03:35;76500.53;;;-143.60;93.14
68329;BME280;55182;56.864;60.554;2023-11-21T10:06:01;76496.50;;;-143.60;93.15
68329;BME280;55182;56.864;60.554;2023-11-21T10:08:26;76504.56;;;-143.60;93.50
68329;BME280;55182;56.864;60.554;2023-11-21T10:10:53;76496.50;;;-143.60;93.55
68329;BME280;55182;56.864;60.554;2023-11-21T10:13:18;76488.47;;;-143.60;93.08
68329;BME280;55182;56.864;60.554;2023-11-21T10:15:43;76484.44;;;-143.60;93.09
68329;BME280;55182;56.864;60.554;2023-11-21T10:18:09;76480.44;;;-143.60;93.56
68329;BME280;55182;56.864;60.554;2023-11-21T10:20:34;76478.44;;;-143.60;93.54
68329;BME280;55182;56.864;60.554;2023-11-21T10:23:00;76472.41;;;-143.60;94.03
68329;BME280;55182;56.864;60.554;2023-11-21T10:25:26;76486.47;;;-143.60;93.84
68329;BME280;55182;56.864;60.554;2023-11-21T10:27:55;76476.41;;;-143.60;93.65
68329;BME280;55182;56.864;60.554;2023-11-21T10:30:22;76474.41;;;-143.60;93.80
68329;BME280;55182;56.864;60.554;2023-11-21T10:32:47;76478.44;;;-143.60;93.74
68329;BME280;55182;56.864;60.554;2023-11-21T10:35:13;76460.34;;;-143.60;94.12
68329;BME280;55182;56.864;60.554;2023-11-21T10:37:39;76464.34;;;-143.60;94.08
68329;BME280;55182;56.864;60.554;2023-11-21T10:40:09;76456.31;;;-143.60;93.97
68329;BME280;55182;56.864;60.554;2023-11-21T10:42:34;76452.31;;;-143.60;94.01
68329;BME280;55182;56.864;60.554;2023-11-21T10:45:00;76448.28;;;-143.60;93.75
68329;BME280;55182;56.864;60.554;2023-11-21T10:47:25;76456.31;;;-143.60;93.58
68329;BME280;55182;56.864;60.554;2023-11-21T10:49:51;76454.31;;;-143.60;93.32
68329;BME280;55182;56.864;60.554;2023-11-21T10:52:18;76448.28;;;-143.60;92.95
68329;BME280;55182;56.864;60.554;2023-11-21T10:54:44;76438.22;;;-143.60;93.42
68329;BME280;55182;56.864;60.554;2023-11-21T10:57:10;76420.16;;;-143.60;93.57
68329;BME280;55182;56.864;60.554;2023-11-21T10:59:36;76426.19;;;-143.60;93.27
68329;BME280;55182;56.864;60.554;2023-11-21T11:02:03;76424.16;;;-143.60;93.22
68329;BME280;55182;56.864;60.554;2023-11-21T11:04:33;76428.19;;;-143.60;93.40
68329;BME280;55182;56.864;60.554;2023-11-21T11:07:01;76422.16;;;-143.60;93.36
68329;BME280;55182;56.864;60.554;2023-11-21T11:09:27;76412.09;;;-143.60;92.73
68329;BME280;55182;56.864;60.554;2023-11-21T11:11:52;76416.13;;;-143.60;92.95
68329;BME280;55182;56.864;60.554;2023-11-21T11:14:18;76408.09;;;-143.60;92.58
68329;BME280;55182;56.864;60.554;2023-11-21T11:16:44;76400.06;;;-143.60;92.57
68329;BME280;55182;56.864;60.554;2023-11-21T11:19:10;76404.06;;;-143.60;92.47
68329;BME280;55182;56.864;60.554;2023-11-21T11:21:38;76404.06;;;-143.60;92.67
68329;BME280;55182;56.864;60.554;2023-11-21T11:26:42;76410.09;;;-143.60;92.10
68329;BME280;55182;56.864;60.554;2023-11-21T11:32:00;76396.03;;;-143.60;91.88
68329;BME280;55182;56.864;60.554;2023-11-21T11:35:15;76408.09;;;-143.60;91.86
68329;BME280;55182;56.864;60.554;2023-11-21T11:37:14;76400.06;;;-143.60;92.16
68329;BME280;55182;56.864;60.554;2023-11-21T11:39:41;76396.03;;;-143.60;92.01
68329;BME280;55182;56.864;60.554;2023-11-21T11:42:08;76404.06;;;-143.60;91.65
68329;BME280;55182;56.864;60.554;2023-11-21T11:47:15;76400.06;;;-143.60;91.58
68329;BME280;55182;56.864;60.554;2023-11-21T11:52:34;76396.03;;;-143.60;91.65
68329;BME280;55182;56.864;60.554;2023-11-21T11:55:00;76388.00;;;-143.60;91.78
68329;BME280;55182;56.864;60.554;2023-11-21T11:57:26;76383.97;;;-143.60;91.65
68329;BME280;55182;56.864;60.554;2023-11-21T12:02:32;76390.00;;;-143.60;91.56
68329;BME280;55182;56.864;60.554;2023-11-21T12:04:59;76381.97;;;-143.60;91.53
68329;BME280;55182;56.864;60.554;2023-11-21T12:07:24;76375.94;;;-143.60;91.40
68329;BME280;55182;56.864;60.554;2023-11-21T12:09:50;76379.94;;;-143.60;91.39
68329;BME280;55182;56.864;60.554;2023-11-21T12:12:15;76363.88;;;-143.60;91.17
68329;BME280;55182;56.864;60.554;2023-11-21T12:14:41;76363.88;;;-143.60;91.31
68329;BME280;55182;56.864;60.554;2023-11-21T12:17:06;76363.88;;;-143.60;91.38
68329;BME280;55182;56.864;60.554;2023-11-21T12:19:32;76347.81;;;-143.60;91.12
68329;BME280;55182;56.864;60.554;2023-11-21T12:21:57;76347.81;;;-143.60;91.13
68329;BME280;55182;56.864;60.554;2023-11-21T12:24:22;76343.78;;;-143.60;91.00
68329;BME280;55182;56.864;60.554;2023-11-21T12:26:48;76335.75;;;-143.60;91.11
68329;BME280;55182;56.864;60.554;2023-11-21T12:29:13;76343.78;;;-143.60;91.25
68329;BME280;55182;56.864;60.554;2023-11-21T12:31:39;76333.72;;;-143.60;91.39
68329;BME280;55182;56.864;60.554;2023-11-21T12:34:04;76337.75;;;-143.60;90.98
68329;BME280;55182;56.864;60.554;2023-11-21T12:36:30;76337.75;;;-143.60;90.94